createdAt,value
2018-09-22T00:00:18.280Z,57.82
2018-09-22T00:02:47.289Z,58.07
2018-09-22T00:05:16.193Z,58.18
2018-09-22T00:07:45.189Z,58.78
2018-09-22T00:10:14.128Z,59.38
2018-09-22T00:12:43.019Z,58.97
2018-09-22T00:15:11.911Z,58.71
2018-09-22T00:17:41.994Z,58.91
2018-09-22T00:20:10.950Z,59.11
2018-09-22T00:22:39.852Z,58.45
2018-09-22T00:25:08.412Z,58.06
2018-09-22T00:27:38.277Z,58.05
2018-09-22T00:30:07.291Z,58.20
2018-09-22T00:32:36.192Z,58.21
2018-09-22T00:35:05.335Z,57.81
2018-09-22T00:37:34.264Z,57.54
2018-09-22T00:40:03.429Z,57.86
2018-09-22T00:42:32.376Z,57.36
2018-09-22T00:45:01.296Z,57.04
2018-09-22T00:47:30.223Z,56.92
2018-09-22T00:49:59.135Z,57.14
2018-09-22T00:52:28.058Z,57.08
2018-09-22T00:54:56.980Z,57.25
2018-09-22T00:57:25.936Z,57.38
2018-09-22T00:59:54.832Z,57.60
2018-09-22T01:02:23.847Z,56.83
2018-09-22T01:04:52.774Z,56.87
2018-09-22T01:07:21.678Z,57.21
2018-09-22T01:09:50.613Z,56.92
2018-09-22T01:12:19.511Z,57.30
2018-09-22T01:14:49.871Z,57.42
2018-09-22T01:17:18.800Z,57.14
2018-09-22T01:19:47.734Z,57.62
2018-09-22T01:22:16.632Z,57.41
2018-09-22T01:24:45.652Z,57.35
2018-09-22T01:27:14.538Z,57.76
2018-09-22T01:29:43.442Z,57.54
2018-09-22T01:32:12.357Z,57.62
2018-09-22T01:34:41.252Z,57.89
2018-09-22T01:37:10.204Z,57.50
2018-09-22T01:39:39.105Z,57.53
2018-09-22T01:42:08.020Z,57.60
2018-09-22T01:44:36.911Z,57.61
2018-09-22T01:47:05.840Z,57.54
2018-09-22T01:49:34.728Z,57.62
2018-09-22T01:52:03.683Z,57.68
2018-09-22T01:54:32.588Z,57.67
2018-09-22T01:57:01.603Z,57.31
2018-09-22T01:59:30.473Z,56.88
2018-09-22T02:01:59.505Z,57.11
2018-09-22T02:04:28.407Z,57.19
2018-09-22T02:06:57.311Z,57.09
2018-09-22T02:09:26.207Z,57.00
2018-09-22T02:11:55.154Z,57.03
2018-09-22T02:14:24.129Z,56.66
2018-09-22T02:16:52.996Z,57.04
2018-09-22T02:19:21.901Z,56.86
2018-09-22T02:21:51.477Z,56.51
2018-09-22T02:24:20.384Z,56.78
2018-09-22T02:26:49.285Z,57.09
2018-09-22T02:29:18.237Z,56.66
2018-09-22T02:31:47.136Z,56.95
2018-09-22T02:34:16.072Z,56.95
2018-09-22T02:36:44.976Z,57.29
2018-09-22T02:39:13.891Z,57.43
2018-09-22T02:41:42.792Z,57.59
2018-09-22T02:44:11.784Z,57.26
2018-09-22T02:46:40.707Z,57.46
2018-09-22T02:49:09.599Z,57.38
2018-09-22T02:51:38.549Z,57.88
2018-09-22T02:54:07.441Z,57.88
2018-09-22T02:56:36.341Z,57.94
2018-09-22T02:59:05.277Z,57.79
2018-09-22T03:01:34.189Z,57.91
2018-09-22T03:04:03.208Z,57.77
2018-09-22T03:06:32.202Z,57.59
2018-09-22T03:09:03.400Z,57.89
2018-09-22T03:11:32.648Z,57.91
2018-09-22T03:14:01.733Z,58.40
2018-09-22T03:16:30.850Z,58.11
2018-09-22T03:19:00.088Z,58.19
2018-09-22T03:21:29.216Z,58.34
2018-09-22T03:23:58.341Z,58.65
2018-09-22T03:26:27.462Z,58.86
2018-09-22T03:28:56.396Z,58.64
2018-09-22T03:31:25.343Z,58.65
2018-09-22T03:33:54.231Z,58.95
2018-09-22T03:36:23.161Z,59.12
2018-09-22T03:38:52.191Z,59.31
2018-09-22T03:41:21.112Z,59.29
2018-09-22T03:43:50.027Z,59.32
2018-09-22T03:46:19.006Z,59.29
2018-09-22T03:48:47.957Z,59.54
2018-09-22T03:51:16.913Z,59.63
2018-09-22T03:53:45.806Z,59.52
2018-09-22T03:56:16.788Z,59.93
2018-09-22T03:58:45.722Z,59.95
2018-09-22T04:01:14.622Z,59.58
2018-09-22T04:03:43.519Z,59.09
2018-09-22T04:06:12.440Z,59.33
2018-09-22T04:08:41.350Z,59.38
2018-09-22T04:11:10.360Z,58.90
2018-09-22T04:13:39.340Z,58.93
2018-09-22T04:16:08.253Z,58.91
2018-09-22T04:18:37.144Z,58.97
2018-09-22T04:21:05.654Z,58.84
2018-09-22T04:23:34.604Z,58.45
2018-09-22T04:26:03.539Z,58.21
2018-09-22T04:28:32.454Z,58.77
2018-09-22T04:31:01.540Z,58.51
2018-09-22T04:33:30.568Z,58.18
2018-09-22T04:35:59.456Z,58.44
2018-09-22T04:38:28.377Z,57.98
2018-09-22T04:40:57.303Z,57.66
2018-09-22T04:43:26.288Z,57.84
2018-09-22T04:45:55.183Z,58.14
2018-09-22T04:48:24.084Z,57.67
2018-09-22T04:50:53.023Z,57.80
2018-09-22T04:53:21.988Z,57.36
2018-09-22T04:55:50.909Z,57.43
2018-09-22T04:58:19.840Z,58.00
2018-09-22T05:00:48.761Z,58.12
2018-09-22T05:03:17.780Z,58.10
2018-09-22T05:05:46.672Z,58.17
2018-09-22T05:08:15.588Z,57.99
2018-09-22T05:10:44.500Z,58.27
2018-09-22T05:13:13.508Z,58.71
2018-09-22T05:15:42.399Z,58.77
2018-09-22T05:18:11.314Z,58.69
2018-09-22T05:20:40.220Z,58.40
2018-09-22T05:23:09.156Z,58.41
2018-09-22T05:25:38.073Z,58.39
2018-09-22T05:28:09.045Z,57.98
2018-09-22T05:30:38.014Z,57.93
2018-09-22T05:33:06.913Z,57.85
2018-09-22T05:35:35.837Z,57.47
2018-09-22T05:38:04.785Z,57.47
2018-09-22T05:40:33.732Z,57.95
2018-09-22T05:43:02.704Z,58.35
2018-09-22T05:45:31.604Z,58.41
2018-09-22T05:48:00.561Z,58.72
2018-09-22T05:50:29.450Z,59.15
2018-09-22T05:52:58.338Z,59.07
2018-09-22T05:55:27.256Z,58.94
2018-09-22T05:57:56.238Z,58.78
2018-09-22T06:00:25.068Z,58.68
2018-09-22T06:02:55.788Z,58.44
2018-09-22T06:05:24.704Z,58.66
2018-09-22T06:07:53.604Z,58.90
2018-09-22T06:10:22.519Z,59.09
2018-09-22T06:12:51.513Z,58.88
2018-09-22T06:15:20.448Z,59.13
2018-09-22T06:17:49.337Z,59.00
2018-09-22T06:20:18.257Z,58.61
2018-09-22T06:22:47.210Z,58.76
2018-09-22T06:25:16.224Z,58.73
2018-09-22T06:27:45.136Z,59.32
2018-09-22T06:30:14.442Z,59.94
2018-09-22T06:32:43.506Z,59.96
2018-09-22T06:35:12.740Z,59.98
2018-09-22T06:37:41.707Z,60.45
2018-09-22T06:40:10.621Z,61.39
2018-09-22T06:42:39.493Z,61.82
2018-09-22T06:45:08.398Z,62.16
2018-09-22T06:47:37.320Z,64.67
2018-09-22T06:50:06.295Z,66.40
2018-09-22T06:52:35.177Z,67.72
2018-09-22T06:55:04.192Z,68.96
2018-09-22T06:57:33.668Z,69.27
2018-09-22T07:00:02.662Z,69.45
2018-09-22T07:02:31.550Z,70.09
2018-09-22T07:05:00.489Z,70.94
2018-09-22T07:07:29.400Z,70.56
2018-09-22T07:09:58.346Z,71.23
2018-09-22T07:12:27.316Z,71.53
2018-09-22T07:14:56.239Z,72.38
2018-09-22T07:17:28.832Z,72.41
2018-09-22T07:19:57.811Z,72.21
2018-09-22T07:22:31.948Z,72.74
2018-09-22T07:25:00.854Z,72.71
2018-09-22T07:27:29.743Z,72.59
2018-09-22T07:29:58.664Z,72.94
2018-09-22T07:32:27.572Z,73.13
2018-09-22T07:34:56.472Z,72.99
2018-09-22T07:37:25.365Z,72.58
2018-09-22T07:39:54.274Z,72.25
2018-09-22T07:42:23.186Z,72.04
2018-09-22T07:44:52.120Z,71.58
2018-09-22T07:47:21.168Z,71.13
2018-09-22T07:49:50.105Z,71.37
2018-09-22T07:52:19.089Z,72.12
2018-09-22T07:54:48.034Z,71.68
2018-09-22T07:57:17.004Z,73.24
2018-09-22T07:59:45.886Z,72.39
2018-09-22T08:02:14.811Z,72.71
2018-09-22T08:04:43.764Z,72.17
2018-09-22T08:07:12.718Z,71.21
2018-09-22T08:09:41.603Z,71.16
2018-09-22T08:12:10.593Z,71.11
2018-09-22T08:14:39.550Z,70.84
2018-09-22T08:17:08.484Z,70.08
2018-09-22T08:19:37.403Z,70.76
2018-09-22T08:22:06.395Z,70.61
2018-09-22T08:24:35.280Z,70.44
2018-09-22T08:27:04.812Z,70.39
2018-09-22T08:29:33.731Z,70.25
2018-09-22T08:32:02.764Z,70.64
2018-09-22T08:34:31.689Z,72.35
2018-09-22T08:37:00.891Z,73.11
2018-09-22T08:39:31.692Z,74.03
2018-09-22T08:42:01.854Z,73.58
2018-09-22T08:44:30.781Z,73.83
2018-09-22T08:46:59.993Z,73.84
2018-09-22T08:49:28.967Z,73.53
2018-09-22T08:51:58.007Z,73.55
2018-09-22T08:54:26.965Z,73.31
2018-09-22T08:56:55.819Z,72.66
2018-09-22T08:59:24.723Z,71.24
2018-09-22T09:01:53.717Z,71.53
2018-09-22T09:04:22.667Z,71.21
2018-09-22T09:06:51.641Z,71.63
2018-09-22T09:09:20.608Z,71.77
2018-09-22T09:11:49.553Z,72.47
2018-09-22T09:14:18.509Z,72.31
2018-09-22T09:16:47.405Z,72.42
2018-09-22T09:19:16.356Z,72.25
2018-09-22T09:21:45.308Z,72.28
2018-09-22T09:24:14.205Z,72.21
2018-09-22T09:26:43.177Z,72.48
2018-09-22T09:29:12.467Z,71.76
2018-09-22T09:31:41.368Z,71.52
2018-09-22T09:34:10.276Z,71.32
2018-09-22T09:36:39.195Z,70.57
2018-09-22T09:39:08.103Z,70.80
2018-09-22T09:41:37.017Z,70.54
2018-09-22T09:44:05.935Z,70.46
2018-09-22T09:46:34.823Z,70.74
2018-09-22T09:49:03.749Z,70.58
2018-09-22T09:51:34.698Z,70.50
2018-09-22T09:54:03.674Z,70.15
2018-09-22T09:56:32.661Z,70.46
2018-09-22T09:59:01.544Z,70.68
2018-09-22T10:01:30.515Z,70.20
2018-09-22T10:03:59.491Z,69.56
2018-09-22T10:06:28.423Z,69.37
2018-09-22T10:08:58.437Z,68.90
2018-09-22T10:11:27.349Z,68.49
2018-09-22T10:13:56.255Z,68.25
2018-09-22T10:16:25.160Z,68.26
2018-09-22T10:18:54.035Z,68.03
2018-09-22T10:21:22.994Z,67.31
2018-09-22T10:23:51.849Z,67.90
2018-09-22T10:26:20.781Z,66.17
2018-09-22T10:28:49.828Z,66.51
2018-09-22T10:31:18.777Z,67.82
2018-09-22T10:33:47.708Z,68.43
2018-09-22T10:36:16.648Z,68.20
2018-09-22T10:38:45.767Z,68.27
2018-09-22T10:41:14.739Z,68.94
2018-09-22T10:43:43.664Z,69.01
2018-09-22T10:46:12.572Z,69.55
2018-09-22T10:48:41.493Z,69.28
2018-09-22T10:51:10.398Z,68.96
2018-09-22T10:53:39.311Z,69.19
2018-09-22T10:56:08.373Z,68.46
2018-09-22T10:58:37.262Z,72.07
2018-09-22T11:01:06.204Z,74.17
2018-09-22T11:03:35.138Z,74.33
2018-09-22T11:06:04.093Z,74.47
2018-09-22T11:08:33.061Z,74.46
2018-09-22T11:11:01.957Z,73.71
2018-09-22T11:13:30.878Z,73.90
2018-09-22T11:15:59.853Z,73.94
2018-09-22T11:18:28.761Z,73.51
2018-09-22T11:20:57.823Z,73.42
2018-09-22T11:23:26.794Z,73.82
2018-09-22T11:25:55.700Z,73.37
2018-09-22T11:28:24.677Z,73.29
2018-09-22T11:30:53.641Z,73.46
2018-09-22T11:33:22.605Z,73.38
2018-09-22T11:35:51.550Z,72.07
2018-09-22T11:38:20.571Z,72.77
2018-09-22T11:41:00.088Z,72.89
2018-09-22T11:43:29.019Z,73.64
2018-09-22T11:46:00.339Z,73.83
2018-09-22T11:48:29.229Z,73.57
2018-09-22T11:50:58.376Z,73.84
2018-09-22T11:53:27.345Z,75.55
2018-09-22T11:55:56.268Z,76.34
2018-09-22T11:58:25.205Z,77.87
2018-09-22T12:00:54.113Z,78.39
2018-09-22T12:03:24.109Z,77.82
2018-09-22T12:05:53.092Z,78.15
2018-09-22T12:08:22.015Z,78.43
2018-09-22T12:10:50.933Z,79.27
2018-09-22T12:13:20.432Z,79.40
2018-09-22T12:15:49.418Z,78.59
2018-09-22T12:18:18.341Z,77.34
2018-09-22T12:20:47.267Z,77.01
2018-09-22T12:23:16.193Z,77.23
2018-09-22T12:25:45.124Z,77.46
2018-09-22T12:28:14.116Z,77.71
2018-09-22T12:30:43.073Z,77.35
2018-09-22T12:33:11.992Z,77.83
2018-09-22T12:35:40.909Z,77.11
2018-09-22T12:38:09.904Z,77.39
2018-09-22T12:40:39.177Z,78.13
2018-09-22T12:43:08.721Z,78.49
2018-09-22T12:45:37.844Z,78.13
2018-09-22T12:48:06.903Z,78.70
2018-09-22T12:50:35.865Z,78.81
2018-09-22T12:53:05.425Z,78.12
2018-09-22T12:55:34.620Z,78.56
2018-09-22T12:58:03.588Z,78.58
2018-09-22T13:00:32.568Z,78.45
2018-09-22T13:03:01.525Z,77.97
2018-09-22T13:08:17.363Z,76.90
2018-09-22T13:10:46.273Z,77.03
2018-09-22T13:13:15.339Z,76.93
2018-09-22T13:15:44.388Z,76.20
2018-09-22T13:18:13.333Z,76.08
2018-09-22T13:20:42.960Z,75.83
2018-09-22T13:23:11.931Z,73.63
2018-09-22T13:25:40.824Z,73.35
2018-09-22T13:28:09.750Z,73.39
2018-09-22T13:30:38.746Z,71.54
2018-09-22T13:33:07.634Z,71.50
2018-09-22T13:35:36.648Z,71.65
2018-09-22T13:38:05.627Z,70.73
2018-09-22T13:40:34.536Z,71.68
2018-09-22T13:43:03.513Z,72.94
2018-09-22T13:45:32.416Z,73.66
2018-09-22T13:48:01.372Z,75.40
2018-09-22T13:50:30.272Z,77.38
2018-09-22T13:52:59.232Z,79.24
2018-09-22T13:55:28.204Z,79.64
2018-09-22T13:57:57.244Z,79.71
2018-09-22T14:00:26.122Z,78.63
2018-09-22T14:02:55.030Z,77.10
2018-09-22T14:05:23.981Z,76.61
2018-09-22T14:07:52.880Z,77.08
2018-09-22T14:10:21.845Z,77.44
2018-09-22T14:12:50.904Z,77.96
2018-09-22T14:15:19.884Z,77.29
2018-09-22T14:17:51.257Z,77.99
2018-09-22T14:20:37.152Z,77.99
2018-09-22T14:23:06.088Z,78.55
2018-09-22T14:25:34.976Z,79.40
2018-09-22T14:28:03.920Z,78.82
2018-09-22T14:30:32.892Z,79.62
2018-09-22T14:33:01.823Z,79.38
2018-09-22T14:35:30.700Z,80.07
2018-09-22T14:37:59.674Z,80.53
2018-09-22T14:40:28.633Z,81.27
2018-09-22T14:42:57.487Z,79.95
2018-09-22T14:45:26.381Z,79.48
2018-09-22T14:47:55.417Z,80.13
2018-09-22T14:50:24.311Z,80.21
2018-09-22T14:52:53.244Z,80.67
2018-09-22T14:55:22.425Z,80.90
2018-09-22T14:57:51.296Z,80.83
2018-09-22T15:00:20.284Z,80.55
2018-09-22T15:02:49.206Z,80.31
2018-09-22T15:05:18.137Z,80.31
2018-09-22T15:07:47.010Z,79.71
2018-09-22T15:10:15.893Z,80.02
2018-09-22T15:12:44.764Z,79.59
2018-09-22T15:15:13.666Z,80.38
2018-09-22T15:17:42.576Z,80.34
2018-09-22T15:20:11.484Z,79.38
2018-09-22T15:22:40.424Z,80.19
2018-09-22T15:25:09.372Z,80.00
2018-09-22T15:27:38.269Z,80.63
2018-09-22T15:30:07.200Z,80.39
2018-09-22T15:32:36.227Z,81.83
2018-09-22T15:35:05.194Z,81.40
2018-09-22T15:37:34.110Z,81.13
2018-09-22T15:40:03.118Z,81.05
2018-09-22T15:42:31.983Z,81.66
2018-09-22T15:45:00.896Z,81.76
2018-09-22T15:47:29.790Z,82.23
2018-09-22T15:49:58.700Z,82.76
2018-09-22T15:52:27.593Z,81.98
2018-09-22T15:54:56.492Z,81.40
2018-09-22T15:57:25.416Z,81.23
2018-09-22T15:59:54.313Z,81.42
2018-09-22T16:02:23.220Z,81.70
2018-09-22T16:04:54.154Z,81.02
2018-09-22T16:07:23.029Z,80.98
2018-09-22T16:09:52.006Z,80.82
2018-09-22T16:12:20.891Z,80.64
2018-09-22T16:14:50.877Z,80.15
2018-09-22T16:17:19.796Z,80.23
2018-09-22T16:19:48.706Z,81.12
2018-09-22T16:22:17.575Z,80.76
2018-09-22T16:24:46.457Z,80.57
2018-09-22T16:27:15.376Z,80.65
2018-09-22T16:29:44.284Z,82.09
2018-09-22T16:32:13.176Z,81.75
2018-09-22T16:34:42.082Z,81.47
2018-09-22T16:37:10.980Z,80.43
2018-09-22T16:39:39.869Z,81.46
2018-09-22T16:42:08.742Z,82.34
2018-09-22T16:44:37.673Z,81.94
2018-09-22T16:47:10.094Z,82.51
2018-09-22T16:49:38.999Z,82.31
2018-09-22T16:52:07.882Z,82.00
2018-09-22T16:54:36.772Z,81.45
2018-09-22T16:57:05.685Z,81.31
2018-09-22T16:59:34.696Z,82.02
2018-09-22T17:02:03.626Z,81.84
2018-09-22T17:04:32.551Z,81.65
2018-09-22T17:07:01.464Z,81.31
2018-09-22T17:12:14.814Z,81.75
2018-09-22T17:14:43.892Z,81.20
2018-09-22T17:17:15.944Z,80.56
2018-09-22T17:19:44.894Z,80.61
2018-09-22T17:22:13.828Z,80.49
2018-09-22T17:24:42.800Z,79.95
2018-09-22T17:27:11.766Z,80.36
2018-09-22T17:29:40.743Z,79.84
2018-09-22T17:32:09.648Z,79.74
2018-09-22T17:34:39.610Z,79.55
2018-09-22T17:37:08.553Z,79.62
2018-09-22T17:39:37.491Z,79.46
2018-09-22T17:42:06.425Z,79.73
2018-09-22T17:44:35.397Z,80.42
2018-09-22T17:47:04.335Z,80.36
2018-09-22T17:49:33.555Z,79.97
2018-09-22T17:52:02.488Z,80.50
2018-09-22T17:54:31.469Z,80.16
2018-09-22T17:57:00.511Z,80.85
2018-09-22T17:59:29.661Z,80.64
2018-09-22T18:01:58.928Z,81.09
2018-09-22T18:04:28.105Z,81.90
2018-09-22T18:06:57.128Z,82.09
2018-09-22T18:09:26.109Z,82.02
2018-09-22T18:11:55.059Z,81.59
2018-09-22T18:14:23.971Z,82.84
2018-09-22T18:16:52.907Z,83.86
2018-09-22T18:19:21.805Z,84.22
2018-09-22T18:21:50.700Z,83.53
2018-09-22T18:24:20.729Z,82.70
2018-09-22T18:26:49.641Z,82.81
2018-09-22T18:29:18.551Z,82.96
2018-09-22T18:31:47.461Z,83.28
2018-09-22T18:34:16.391Z,83.77
2018-09-22T18:36:46.419Z,83.35
2018-09-22T18:39:15.323Z,83.45
2018-09-22T18:41:44.394Z,83.36
2018-09-22T18:44:13.324Z,83.43
2018-09-22T18:46:42.272Z,84.10
2018-09-22T18:49:11.245Z,84.62
2018-09-22T18:51:41.279Z,84.87
2018-09-22T18:54:16.760Z,84.95
2018-09-22T18:56:45.734Z,85.71
2018-09-22T18:59:14.833Z,85.37
2018-09-22T19:01:43.769Z,85.02
2018-09-22T19:04:12.715Z,85.10
2018-09-22T19:06:41.832Z,85.13
2018-09-22T19:09:11.589Z,84.58
2018-09-22T19:11:40.881Z,85.01
2018-09-22T19:14:15.911Z,84.91
2018-09-22T19:16:49.107Z,84.80
2018-09-22T19:19:23.044Z,84.90
2018-09-22T19:21:56.327Z,84.17
2018-09-22T19:24:44.096Z,84.05
2018-09-22T19:27:22.241Z,83.51
2018-09-22T19:30:55.555Z,83.53
2018-09-22T19:33:33.641Z,82.21
2018-09-22T19:36:05.604Z,82.22
2018-09-22T19:38:41.749Z,82.53
2018-09-22T19:41:19.032Z,82.96
2018-09-22T19:44:03.225Z,83.44
2018-09-22T19:46:50.825Z,83.39
2018-09-22T19:49:24.455Z,83.67
2018-09-22T19:51:57.469Z,83.87
2018-09-22T19:54:26.369Z,83.99
2018-09-22T19:56:55.324Z,84.21
2018-09-22T19:59:24.277Z,83.78
2018-09-22T20:02:06.187Z,83.66
2018-09-22T20:04:35.128Z,83.67
2018-09-22T20:07:04.069Z,83.47
2018-09-22T20:09:33.311Z,83.45
2018-09-22T20:12:02.292Z,83.88
2018-09-22T20:14:31.278Z,83.98
2018-09-22T20:17:00.179Z,84.94
2018-09-22T20:19:29.095Z,84.74
2018-09-22T20:21:58.037Z,84.86
2018-09-22T20:24:27.027Z,84.97
2018-09-22T20:26:55.985Z,84.87
2018-09-22T20:29:24.910Z,83.99
2018-09-22T20:31:53.835Z,84.62
2018-09-22T20:34:22.789Z,85.87
2018-09-22T20:36:56.741Z,86.04
2018-09-22T20:39:25.642Z,86.33
2018-09-22T20:41:54.567Z,85.47
2018-09-22T20:44:27.961Z,85.86
2018-09-22T20:46:56.903Z,86.34
2018-09-22T20:49:25.767Z,86.83
2018-09-22T20:51:54.648Z,86.88
2018-09-22T20:54:23.579Z,86.40
2018-09-22T20:56:52.459Z,85.96
2018-09-22T20:59:21.325Z,86.27
2018-09-22T21:01:50.218Z,86.23
2018-09-22T21:04:19.171Z,86.02
2018-09-22T21:06:48.047Z,85.75
2018-09-22T21:09:16.933Z,85.67
2018-09-22T21:11:52.205Z,86.05
2018-09-22T21:14:21.108Z,85.16
2018-09-22T21:16:49.993Z,84.66
2018-09-22T21:19:19.659Z,84.47
2018-09-22T21:21:48.590Z,84.80
2018-09-22T21:24:17.597Z,84.67
2018-09-22T21:26:46.408Z,84.80
2018-09-22T21:29:15.355Z,85.19
2018-09-22T21:31:44.259Z,84.71
2018-09-22T21:34:13.175Z,84.73
2018-09-22T21:36:42.091Z,85.50
2018-09-22T21:39:11.243Z,85.12
2018-09-22T21:41:40.141Z,84.98
2018-09-22T21:44:09.050Z,85.19
2018-09-22T21:46:38.001Z,85.20
2018-09-22T21:49:07.012Z,84.78
2018-09-22T21:51:35.899Z,85.38
2018-09-22T21:54:04.817Z,84.78
2018-09-22T21:56:33.733Z,84.53
2018-09-22T21:59:02.696Z,84.60
2018-09-22T22:01:36.748Z,84.35
2018-09-22T22:04:05.677Z,84.71
2018-09-22T22:06:34.640Z,84.71
2018-09-22T22:09:04.905Z,84.73
2018-09-22T22:11:33.875Z,84.62
2018-09-22T22:14:02.754Z,85.12
2018-09-22T22:16:31.664Z,86.38
2018-09-22T22:19:00.803Z,86.95
2018-09-22T22:21:29.739Z,87.61
2018-09-22T22:23:58.657Z,87.81
2018-09-22T22:26:27.551Z,87.60
2018-09-22T22:28:56.509Z,86.91
2018-09-22T22:31:25.511Z,86.96
2018-09-22T22:33:54.413Z,86.63
2018-09-22T22:36:23.352Z,86.67
2018-09-22T22:38:52.300Z,86.48
2018-09-22T22:41:21.771Z,85.57
2018-09-22T22:43:50.700Z,85.78
2018-09-22T22:46:19.597Z,86.15
2018-09-22T22:48:48.537Z,86.78
2018-09-22T22:51:17.419Z,87.52
2018-09-22T22:53:46.365Z,87.77
2018-09-22T22:56:15.244Z,87.78
2018-09-22T22:58:44.155Z,87.69
2018-09-22T23:01:13.053Z,87.25
2018-09-22T23:03:41.964Z,87.07
2018-09-22T23:06:10.885Z,87.06
2018-09-22T23:08:39.835Z,86.45
2018-09-22T23:11:08.736Z,86.75
2018-09-22T23:13:37.751Z,86.54
2018-09-22T23:16:06.698Z,86.68
2018-09-22T23:18:35.597Z,86.70
2018-09-22T23:21:04.553Z,86.47
2018-09-22T23:23:33.464Z,86.46
2018-09-22T23:26:02.395Z,86.48
2018-09-22T23:28:31.297Z,86.04
2018-09-22T23:31:00.202Z,86.20
2018-09-22T23:33:29.113Z,86.04
2018-09-22T23:35:58.125Z,86.02
2018-09-22T23:38:27.016Z,85.87
2018-09-22T23:40:55.939Z,85.35
2018-09-22T23:43:24.840Z,85.38
2018-09-22T23:45:53.734Z,85.55
2018-09-22T23:48:22.652Z,85.95
2018-09-22T23:50:51.569Z,86.33
2018-09-22T23:53:20.573Z,86.60
2018-09-22T23:55:49.482Z,85.74
2018-09-22T23:58:18.416Z,85.45
